sensor_id;sensor_type;location;lat;lon;timestamp;temperature;humidity
22950;DHT22;11641;51.018;4.474;2022-08-03T00:02:10;23.40;99.90
22950;DHT22;11641;51.018;4.474;2022-08-03T00:04:36;23.30;99.90
22950;DHT22;11641;51.018;4.474;2022-08-03T00:07:02;23.30;99.90
22950;DHT22;11641;51.018;4.474;2022-08-03T00:09:27;23.30;99.90
22950;DHT22;11641;51.018;4.474;2022-08-03T00:11:55;23.30;99.90
22950;DHT22;11641;51.018;4.474;2022-08-03T00:14:21;23.30;99.90
22950;DHT22;11641;51.018;4.474;2022-08-03T00:16:52;23.30;99.90
22950;DHT22;11641;51.018;4.474;2022-08-03T00:19:18;23.20;99.90
22950;DHT22;11641;51.018;4.474;2022-08-03T00:21:46;23.20;99.90
22950;DHT22;11641;51.018;4.474;2022-08-03T00:24:12;23.10;99.90
22950;DHT22;11641;51.018;4.474;2022-08-03T00:26:40;22.90;99.90
22950;DHT22;11641;51.018;4.474;2022-08-03T00:29:09;23.00;99.90
22950;DHT22;11641;51.018;4.474;2022-08-03T00:31:38;23.00;99.90
22950;DHT22;11641;51.018;4.474;2022-08-03T00:34:05;23.00;99.90
22950;DHT22;11641;51.018;4.474;2022-08-03T00:36:35;22.90;99.90
22950;DHT22;11641;51.018;4.474;2022-08-03T00:39:04;22.90;99.90
22950;DHT22;11641;51.018;4.474;2022-08-03T00:41:30;22.90;99.90
22950;DHT22;11641;51.018;4.474;2022-08-03T00:43:55;22.80;99.90
22950;DHT22;11641;51.018;4.474;2022-08-03T00:46:21;22.70;99.90
22950;DHT22;11641;51.018;4.474;2022-08-03T00:48:51;22.80;99.90
22950;DHT22;11641;51.018;4.474;2022-08-03T00:51:19;22.70;99.90
22950;DHT22;11641;51.018;4.474;2022-08-03T00:53:48;22.80;99.90
22950;DHT22;11641;51.018;4.474;2022-08-03T00:56:15;22.70;99.90
22950;DHT22;11641;51.018;4.474;2022-08-03T00:58:40;22.70;99.90
22950;DHT22;11641;51.018;4.474;2022-08-03T01:01:08;22.60;99.90
22950;DHT22;11641;51.018;4.474;2022-08-03T01:03:36;22.60;99.90
22950;DHT22;11641;51.018;4.474;2022-08-03T01:06:17;22.60;99.90
22950;DHT22;11641;51.018;4.474;2022-08-03T01:08:57;22.50;99.90
22950;DHT22;11641;51.018;4.474;2022-08-03T01:11:37;22.50;99.90
22950;DHT22;11641;51.018;4.474;2022-08-03T01:14:20;22.50;99.90
22950;DHT22;11641;51.018;4.474;2022-08-03T01:16:59;22.50;99.90
22950;DHT22;11641;51.018;4.474;2022-08-03T01:22:57;22.40;99.90
22950;DHT22;11641;51.018;4.474;2022-08-03T01:28:38;22.30;99.90
22950;DHT22;11641;51.018;4.474;2022-08-03T01:31:10;22.10;99.90
22950;DHT22;11641;51.018;4.474;2022-08-03T01:33:43;22.00;99.90
22950;DHT22;11641;51.018;4.474;2022-08-03T01:36:13;22.10;99.90
22950;DHT22;11641;51.018;4.474;2022-08-03T01:38:46;22.00;99.90
22950;DHT22;11641;51.018;4.474;2022-08-03T01:41:20;22.00;99.90
22950;DHT22;11641;51.018;4.474;2022-08-03T01:43:47;22.00;99.90
22950;DHT22;11641;51.018;4.474;2022-08-03T01:46:17;22.00;99.90
22950;DHT22;11641;51.018;4.474;2022-08-03T01:48:48;21.90;99.90
22950;DHT22;11641;51.018;4.474;2022-08-03T01:51:17;21.90;99.90
22950;DHT22;11641;51.018;4.474;2022-08-03T01:53:48;21.90;99.90
22950;DHT22;11641;51.018;4.474;2022-08-03T01:56:16;21.90;99.90
22950;DHT22;11641;51.018;4.474;2022-08-03T01:58:43;21.80;99.90
22950;DHT22;11641;51.018;4.474;2022-08-03T02:01:14;21.90;99.90
22950;DHT22;11641;51.018;4.474;2022-08-03T02:03:44;21.90;99.90
22950;DHT22;11641;51.018;4.474;2022-08-03T02:06:11;21.90;99.90
22950;DHT22;11641;51.018;4.474;2022-08-03T02:08:42;21.90;99.90
22950;DHT22;11641;51.018;4.474;2022-08-03T02:11:09;21.70;99.90
22950;DHT22;11641;51.018;4.474;2022-08-03T02:13:39;21.70;99.90
22950;DHT22;11641;51.018;4.474;2022-08-03T02:16:06;21.60;99.90
22950;DHT22;11641;51.018;4.474;2022-08-03T02:18:33;21.60;99.90
22950;DHT22;11641;51.018;4.474;2022-08-03T02:21:03;21.50;99.90
22950;DHT22;11641;51.018;4.474;2022-08-03T02:23:30;21.50;99.90
22950;DHT22;11641;51.018;4.474;2022-08-03T02:26:02;21.50;99.90
22950;DHT22;11641;51.018;4.474;2022-08-03T02:28:34;21.60;99.90
22950;DHT22;11641;51.018;4.474;2022-08-03T02:31:04;21.50;99.90
22950;DHT22;11641;51.018;4.474;2022-08-03T02:33:36;21.40;99.90
22950;DHT22;11641;51.018;4.474;2022-08-03T02:36:03;21.50;99.90
22950;DHT22;11641;51.018;4.474;2022-08-03T02:38:36;21.50;99.90
22950;DHT22;11641;51.018;4.474;2022-08-03T02:41:14;21.50;99.90
22950;DHT22;11641;51.018;4.474;2022-08-03T02:43:43;21.40;99.90
22950;DHT22;11641;51.018;4.474;2022-08-03T02:46:12;21.40;99.90
22950;DHT22;11641;51.018;4.474;2022-08-03T02:48:40;21.40;99.90
22950;DHT22;11641;51.018;4.474;2022-08-03T02:51:06;21.30;99.90
22950;DHT22;11641;51.018;4.474;2022-08-03T02:53:34;21.30;99.90
22950;DHT22;11641;51.018;4.474;2022-08-03T02:56:01;21.30;99.90
22950;DHT22;11641;51.018;4.474;2022-08-03T02:58:30;21.30;99.90
22950;DHT22;11641;51.018;4.474;2022-08-03T03:00:56;21.20;99.90
22950;DHT22;11641;51.018;4.474;2022-08-03T03:03:22;21.20;99.90
22950;DHT22;11641;51.018;4.474;2022-08-03T03:05:52;21.20;99.90
22950;DHT22;11641;51.018;4.474;2022-08-03T03:08:19;21.20;99.90
22950;DHT22;11641;51.018;4.474;2022-08-03T03:10:46;21.20;99.90
22950;DHT22;11641;51.018;4.474;2022-08-03T03:13:14;21.10;99.90
22950;DHT22;11641;51.018;4.474;2022-08-03T03:15:42;21.00;99.90
22950;DHT22;11641;51.018;4.474;2022-08-03T03:18:08;21.00;99.90
22950;DHT22;11641;51.018;4.474;2022-08-03T03:20:36;21.00;99.90
22950;DHT22;11641;51.018;4.474;2022-08-03T03:23:04;21.00;99.90
22950;DHT22;11641;51.018;4.474;2022-08-03T03:25:31;21.00;99.90
22950;DHT22;11641;51.018;4.474;2022-08-03T03:27:59;20.90;99.90
22950;DHT22;11641;51.018;4.474;2022-08-03T03:30:28;20.90;99.90
22950;DHT22;11641;51.018;4.474;2022-08-03T03:32:57;20.90;99.90
22950;DHT22;11641;51.018;4.474;2022-08-03T03:35:23;20.80;99.90
22950;DHT22;11641;51.018;4.474;2022-08-03T03:37:49;20.80;99.90
22950;DHT22;11641;51.018;4.474;2022-08-03T03:40:16;20.80;99.90
22950;DHT22;11641;51.018;4.474;2022-08-03T03:42:46;20.80;99.90
22950;DHT22;11641;51.018;4.474;2022-08-03T03:45:12;20.80;99.90
22950;DHT22;11641;51.018;4.474;2022-08-03T03:47:40;20.70;99.90
22950;DHT22;11641;51.018;4.474;2022-08-03T03:50:06;20.70;99.90
22950;DHT22;11641;51.018;4.474;2022-08-03T03:52:36;20.70;99.90
22950;DHT22;11641;51.018;4.474;2022-08-03T03:55:02;20.70;99.90
22950;DHT22;11641;51.018;4.474;2022-08-03T03:57:31;20.60;99.90
22950;DHT22;11641;51.018;4.474;2022-08-03T03:59:58;20.60;99.90
22950;DHT22;11641;51.018;4.474;2022-08-03T04:02:24;20.60;99.90
22950;DHT22;11641;51.018;4.474;2022-08-03T04:04:53;20.60;99.90
22950;DHT22;11641;51.018;4.474;2022-08-03T04:08:02;20.50;99.90
22950;DHT22;11641;51.018;4.474;2022-08-03T04:13:50;20.60;99.90
22950;DHT22;11641;51.018;4.474;2022-08-03T04:16:21;20.50;99.90
22950;DHT22;11641;51.018;4.474;2022-08-03T04:19:01;20.50;99.90
22950;DHT22;11641;51.018;4.474;2022-08-03T04:21:29;20.50;99.90
22950;DHT22;11641;51.018;4.474;2022-08-03T04:23:59;20.50;99.90
22950;DHT22;11641;51.018;4.474;2022-08-03T04:26:30;20.50;99.90
22950;DHT22;11641;51.018;4.474;2022-08-03T04:28:58;20.50;99.90
22950;DHT22;11641;51.018;4.474;2022-08-03T04:31:28;20.50;99.90
22950;DHT22;11641;51.018;4.474;2022-08-03T04:33:56;20.50;99.90
22950;DHT22;11641;51.018;4.474;2022-08-03T04:36:28;20.50;99.90
22950;DHT22;11641;51.018;4.474;2022-08-03T04:39:02;20.50;99.90
22950;DHT22;11641;51.018;4.474;2022-08-03T04:41:29;20.50;99.90
22950;DHT22;11641;51.018;4.474;2022-08-03T04:43:57;20.50;99.90
22950;DHT22;11641;51.018;4.474;2022-08-03T04:46:28;20.50;99.90
22950;DHT22;11641;51.018;4.474;2022-08-03T04:48:56;20.50;99.90
22950;DHT22;11641;51.018;4.474;2022-08-03T04:51:23;20.50;99.90
22950;DHT22;11641;51.018;4.474;2022-08-03T04:53:49;20.50;99.90
22950;DHT22;11641;51.018;4.474;2022-08-03T04:56:18;20.50;99.90
22950;DHT22;11641;51.018;4.474;2022-08-03T04:58:44;20.50;99.90
22950;DHT22;11641;51.018;4.474;2022-08-03T05:01:11;20.60;99.90
22950;DHT22;11641;51.018;4.474;2022-08-03T05:03:36;20.60;99.90
22950;DHT22;11641;51.018;4.474;2022-08-03T05:06:03;20.70;99.90
22950;DHT22;11641;51.018;4.474;2022-08-03T05:08:29;20.70;99.90
22950;DHT22;11641;51.018;4.474;2022-08-03T05:10:55;20.80;99.90
22950;DHT22;11641;51.018;4.474;2022-08-03T05:13:26;20.80;99.90
22950;DHT22;11641;51.018;4.474;2022-08-03T05:15:51;20.70;99.90
22950;DHT22;11641;51.018;4.474;2022-08-03T05:18:18;20.70;99.90
22950;DHT22;11641;51.018;4.474;2022-08-03T05:20:46;20.90;99.90
22950;DHT22;11641;51.018;4.474;2022-08-03T05:23:12;20.80;99.90
22950;DHT22;11641;51.018;4.474;2022-08-03T05:25:40;20.80;99.90
22950;DHT22;11641;51.018;4.474;2022-08-03T05:28:09;20.80;99.90
22950;DHT22;11641;51.018;4.474;2022-08-03T05:30:36;20.80;99.90
22950;DHT22;11641;51.018;4.474;2022-08-03T05:33:02;20.90;99.90
22950;DHT22;11641;51.018;4.474;2022-08-03T05:35:31;20.90;99.90
22950;DHT22;11641;51.018;4.474;2022-08-03T05:38:00;21.00;99.90
22950;DHT22;11641;51.018;4.474;2022-08-03T05:40:25;21.10;99.90
22950;DHT22;11641;51.018;4.474;2022-08-03T05:42:51;21.20;99.90
22950;DHT22;11641;51.018;4.474;2022-08-03T05:45:16;21.20;99.90
22950;DHT22;11641;51.018;4.474;2022-08-03T05:47:44;21.30;99.90
22950;DHT22;11641;51.018;4.474;2022-08-03T05:50:13;21.40;99.90
22950;DHT22;11641;51.018;4.474;2022-08-03T05:52:40;21.50;99.90
22950;DHT22;11641;51.018;4.474;2022-08-03T05:55:10;21.50;99.90
22950;DHT22;11641;51.018;4.474;2022-08-03T05:57:40;21.60;99.90
22950;DHT22;11641;51.018;4.474;2022-08-03T06:00:09;21.60;99.90
22950;DHT22;11641;51.018;4.474;2022-08-03T06:02:36;21.50;99.90
22950;DHT22;11641;51.018;4.474;2022-08-03T06:05:02;21.60;99.90
22950;DHT22;11641;51.018;4.474;2022-08-03T06:07:28;21.70;99.90
22950;DHT22;11641;51.018;4.474;2022-08-03T06:09:54;21.70;99.90
22950;DHT22;11641;51.018;4.474;2022-08-03T06:12:22;21.80;99.90
22950;DHT22;11641;51.018;4.474;2022-08-03T06:14:48;21.60;99.90
22950;DHT22;11641;51.018;4.474;2022-08-03T06:17:14;21.80;99.90
22950;DHT22;11641;51.018;4.474;2022-08-03T06:19:40;22.00;99.90
22950;DHT22;11641;51.018;4.474;2022-08-03T06:22:06;22.10;99.90
22950;DHT22;11641;51.018;4.474;2022-08-03T06:24:33;22.10;99.90
22950;DHT22;11641;51.018;4.474;2022-08-03T06:26:59;22.20;99.90
22950;DHT22;11641;51.018;4.474;2022-08-03T06:29:24;22.30;99.90
22950;DHT22;11641;51.018;4.474;2022-08-03T06:31:50;22.30;99.90
22950;DHT22;11641;51.018;4.474;2022-08-03T06:34:21;22.20;99.90
22950;DHT22;11641;51.018;4.474;2022-08-03T06:36:47;22.40;99.90
22950;DHT22;11641;51.018;4.474;2022-08-03T06:39:16;22.40;99.90
22950;DHT22;11641;51.018;4.474;2022-08-03T06:41:42;22.30;99.90
22950;DHT22;11641;51.018;4.474;2022-08-03T06:44:12;22.30;99.90
22950;DHT22;11641;51.018;4.474;2022-08-03T06:46:38;22.40;99.90
22950;DHT22;11641;51.018;4.474;2022-08-03T06:49:05;22.50;99.90
22950;DHT22;11641;51.018;4.474;2022-08-03T06:51:31;22.70;99.90
22950;DHT22;11641;51.018;4.474;2022-08-03T06:53:57;22.70;99.90
22950;DHT22;11641;51.018;4.474;2022-08-03T06:56:23;22.80;99.90
22950;DHT22;11641;51.018;4.474;2022-08-03T06:58:48;22.90;99.90
22950;DHT22;11641;51.018;4.474;2022-08-03T07:01:14;23.10;99.90
22950;DHT22;11641;51.018;4.474;2022-08-03T07:03:40;23.20;99.90
22950;DHT22;11641;51.018;4.474;2022-08-03T07:06:06;23.40;99.90
22950;DHT22;11641;51.018;4.474;2022-08-03T07:08:32;23.50;99.90
22950;DHT22;11641;51.018;4.474;2022-08-03T07:10:57;23.60;99.90
22950;DHT22;11641;51.018;4.474;2022-08-03T07:13:24;23.60;99.90
22950;DHT22;11641;51.018;4.474;2022-08-03T07:15:50;23.50;99.90
22950;DHT22;11641;51.018;4.474;2022-08-03T07:18:18;23.50;99.90
22950;DHT22;11641;51.018;4.474;2022-08-03T07:20:43;23.60;99.90
22950;DHT22;11641;51.018;4.474;2022-08-03T07:23:12;23.70;99.90
22950;DHT22;11641;51.018;4.474;2022-08-03T07:25:40;23.80;99.90
22950;DHT22;11641;51.018;4.474;2022-08-03T07:28:05;23.90;99.90
22950;DHT22;11641;51.018;4.474;2022-08-03T07:30:32;24.10;99.90
22950;DHT22;11641;51.018;4.474;2022-08-03T07:32:59;24.20;99.90
22950;DHT22;11641;51.018;4.474;2022-08-03T07:35:26;24.00;99.90
22950;DHT22;11641;51.018;4.474;2022-08-03T07:37:56;23.90;99.90
22950;DHT22;11641;51.018;4.474;2022-08-03T07:40:24;24.00;99.90
22950;DHT22;11641;51.018;4.474;2022-08-03T07:42:50;24.10;99.90
22950;DHT22;11641;51.018;4.474;2022-08-03T07:45:16;24.10;99.90
22950;DHT22;11641;51.018;4.474;2022-08-03T07:47:41;24.30;99.90
22950;DHT22;11641;51.018;4.474;2022-08-03T07:50:07;24.30;99.90
22950;DHT22;11641;51.018;4.474;2022-08-03T07:52:35;24.30;99.90
22950;DHT22;11641;51.018;4.474;2022-08-03T07:55:20;24.40;99.90
22950;DHT22;11641;51.018;4.474;2022-08-03T07:57:46;24.60;99.90
22950;DHT22;11641;51.018;4.474;2022-08-03T08:00:16;24.60;99.90
22950;DHT22;11641;51.018;4.474;2022-08-03T08:02:45;24.60;99.90
22950;DHT22;11641;51.018;4.474;2022-08-03T08:05:11;24.70;99.90
22950;DHT22;11641;51.018;4.474;2022-08-03T08:07:38;24.80;99.90
22950;DHT22;11641;51.018;4.474;2022-08-03T08:10:08;24.90;99.90
22950;DHT22;11641;51.018;4.474;2022-08-03T08:12:37;25.00;99.90
22950;DHT22;11641;51.018;4.474;2022-08-03T08:15:04;25.00;99.90
22950;DHT22;11641;51.018;4.474;2022-08-03T08:17:30;25.00;99.90
22950;DHT22;11641;51.018;4.474;2022-08-03T08:19:56;25.10;99.90
22950;DHT22;11641;51.018;4.474;2022-08-03T08:22:22;25.10;99.90
22950;DHT22;11641;51.018;4.474;2022-08-03T08:24:48;25.20;99.90
22950;DHT22;11641;51.018;4.474;2022-08-03T08:27:15;25.40;99.90
22950;DHT22;11641;51.018;4.474;2022-08-03T08:29:40;25.50;99.90
22950;DHT22;11641;51.018;4.474;2022-08-03T08:32:11;25.50;99.90
22950;DHT22;11641;51.018;4.474;2022-08-03T08:34:41;25.40;99.90
22950;DHT22;11641;51.018;4.474;2022-08-03T08:37:06;25.60;99.90
22950;DHT22;11641;51.018;4.474;2022-08-03T08:39:35;25.70;99.90
22950;DHT22;11641;51.018;4.474;2022-08-03T08:42:01;25.70;99.90
22950;DHT22;11641;51.018;4.474;2022-08-03T08:44:30;25.80;99.90
22950;DHT22;11641;51.018;4.474;2022-08-03T08:46:56;25.90;99.90
22950;DHT22;11641;51.018;4.474;2022-08-03T08:49:26;26.20;99.90
22950;DHT22;11641;51.018;4.474;2022-08-03T08:51:57;26.40;99.90
22950;DHT22;11641;51.018;4.474;2022-08-03T08:54:25;26.60;99.90
22950;DHT22;11641;51.018;4.474;2022-08-03T08:56:55;26.90;99.90
22950;DHT22;11641;51.018;4.474;2022-08-03T08:59:21;27.00;99.90
22950;DHT22;11641;51.018;4.474;2022-08-03T09:01:47;27.00;99.90
22950;DHT22;11641;51.018;4.474;2022-08-03T09:04:13;27.10;99.90
22950;DHT22;11641;51.018;4.474;2022-08-03T09:06:39;27.20;99.90
22950;DHT22;11641;51.018;4.474;2022-08-03T09:09:05;27.30;99.90
22950;DHT22;11641;51.018;4.474;2022-08-03T09:11:31;27.50;99.90
22950;DHT22;11641;51.018;4.474;2022-08-03T09:14:00;27.40;99.90
22950;DHT22;11641;51.018;4.474;2022-08-03T09:16:28;27.50;99.90
22950;DHT22;11641;51.018;4.474;2022-08-03T09:18:54;27.70;99.90
22950;DHT22;11641;51.018;4.474;2022-08-03T09:21:22;27.70;99.90
22950;DHT22;11641;51.018;4.474;2022-08-03T09:23:53;27.80;99.90
22950;DHT22;11641;51.018;4.474;2022-08-03T09:26:26;28.10;99.90
22950;DHT22;11641;51.018;4.474;2022-08-03T09:31:38;28.70;99.90
22950;DHT22;11641;51.018;4.474;2022-08-03T09:34:09;28.70;99.90
22950;DHT22;11641;51.018;4.474;2022-08-03T09:36:47;28.50;99.90
22950;DHT22;11641;51.018;4.474;2022-08-03T09:39:24;28.50;99.90
22950;DHT22;11641;51.018;4.474;2022-08-03T09:42:05;28.60;99.90
22950;DHT22;11641;51.018;4.474;2022-08-03T09:44:39;28.80;99.90
22950;DHT22;11641;51.018;4.474;2022-08-03T09:47:07;29.20;99.90
22950;DHT22;11641;51.018;4.474;2022-08-03T09:49:54;29.60;99.90
22950;DHT22;11641;51.018;4.474;2022-08-03T09:52:38;29.50;99.90
22950;DHT22;11641;51.018;4.474;2022-08-03T09:55:08;29.80;99.90
22950;DHT22;11641;51.018;4.474;2022-08-03T09:57:34;30.20;99.90
22950;DHT22;11641;51.018;4.474;2022-08-03T10:00:09;30.60;99.90
22950;DHT22;11641;51.018;4.474;2022-08-03T10:02:36;30.80;99.90
22950;DHT22;11641;51.018;4.474;2022-08-03T10:05:03;30.60;99.90
22950;DHT22;11641;51.018;4.474;2022-08-03T10:07:29;31.40;99.30
22950;DHT22;11641;51.018;4.474;2022-08-03T10:10:00;32.50;96.60
22950;DHT22;11641;51.018;4.474;2022-08-03T10:12:28;33.70;94.00
22950;DHT22;11641;51.018;4.474;2022-08-03T10:14:56;34.20;91.30
22950;DHT22;11641;51.018;4.474;2022-08-03T10:17:25;34.70;89.90
22950;DHT22;11641;51.018;4.474;2022-08-03T10:19:51;35.60;86.30
22950;DHT22;11641;51.018;4.474;2022-08-03T10:22:26;36.40;80.70
22950;DHT22;11641;51.018;4.474;2022-08-03T10:24:59;37.20;77.60
22950;DHT22;11641;51.018;4.474;2022-08-03T10:27:32;38.30;74.30
22950;DHT22;11641;51.018;4.474;2022-08-03T10:30:02;38.70;72.30
22950;DHT22;11641;51.018;4.474;2022-08-03T10:32:53;38.80;68.90
22950;DHT22;11641;51.018;4.474;2022-08-03T10:35:20;39.10;68.20
22950;DHT22;11641;51.018;4.474;2022-08-03T10:38:09;40.70;64.00
22950;DHT22;11641;51.018;4.474;2022-08-03T10:40:37;41.80;59.50
22950;DHT22;11641;51.018;4.474;2022-08-03T10:43:10;42.20;56.90
22950;DHT22;11641;51.018;4.474;2022-08-03T10:45:40;42.00;56.30
22950;DHT22;11641;51.018;4.474;2022-08-03T10:48:07;42.10;55.60
22950;DHT22;11641;51.018;4.474;2022-08-03T10:50:39;41.10;56.60
22950;DHT22;11641;51.018;4.474;2022-08-03T10:53:07;41.70;55.50
22950;DHT22;11641;51.018;4.474;2022-08-03T10:55:36;41.90;54.10
22950;DHT22;11641;51.018;4.474;2022-08-03T10:58:51;42.60;53.60
22950;DHT22;11641;51.018;4.474;2022-08-03T11:01:18;43.20;52.50
22950;DHT22;11641;51.018;4.474;2022-08-03T11:04:14;42.40;52.80
22950;DHT22;11641;51.018;4.474;2022-08-03T11:06:43;43.00;51.20
22950;DHT22;11641;51.018;4.474;2022-08-03T11:11:40;43.50;50.70
22950;DHT22;11641;51.018;4.474;2022-08-03T11:14:20;44.40;49.30
22950;DHT22;11641;51.018;4.474;2022-08-03T11:17:05;44.80;49.70
22950;DHT22;11641;51.018;4.474;2022-08-03T11:19:47;44.40;48.00
22950;DHT22;11641;51.018;4.474;2022-08-03T11:22:14;42.40;51.10
22950;DHT22;11641;51.018;4.474;2022-08-03T11:30:06;43.00;50.30
22950;DHT22;11641;51.018;4.474;2022-08-03T11:40:41;47.50;44.80
22950;DHT22;11641;51.018;4.474;2022-08-03T11:48:44;48.30;42.90
22950;DHT22;11641;51.018;4.474;2022-08-03T11:51:27;49.20;41.40
22950;DHT22;11641;51.018;4.474;2022-08-03T11:54:04;48.60;41.40
22950;DHT22;11641;51.018;4.474;2022-08-03T11:56:48;48.50;41.50
22950;DHT22;11641;51.018;4.474;2022-08-03T11:59:14;47.30;41.50
22950;DHT22;11641;51.018;4.474;2022-08-03T12:01:43;48.10;42.20
22950;DHT22;11641;51.018;4.474;2022-08-03T12:04:10;48.70;40.70
22950;DHT22;11641;51.018;4.474;2022-08-03T12:06:36;48.40;40.80
22950;DHT22;11641;51.018;4.474;2022-08-03T12:09:21;47.50;41.60
22950;DHT22;11641;51.018;4.474;2022-08-03T12:11:48;45.40;43.10
22950;DHT22;11641;51.018;4.474;2022-08-03T12:14:18;43.70;45.20
22950;DHT22;11641;51.018;4.474;2022-08-03T12:16:48;43.90;45.00
22950;DHT22;11641;51.018;4.474;2022-08-03T12:19:14;44.00;44.80
22950;DHT22;11641;51.018;4.474;2022-08-03T12:21:49;44.40;45.00
22950;DHT22;11641;51.018;4.474;2022-08-03T12:24:15;45.20;42.90
22950;DHT22;11641;51.018;4.474;2022-08-03T12:26:47;45.50;42.90
22950;DHT22;11641;51.018;4.474;2022-08-03T12:29:18;45.90;42.70
22950;DHT22;11641;51.018;4.474;2022-08-03T12:31:44;46.40;42.50
22950;DHT22;11641;51.018;4.474;2022-08-03T12:34:12;47.10;41.10
22950;DHT22;11641;51.018;4.474;2022-08-03T12:36:52;48.00;40.50
22950;DHT22;11641;51.018;4.474;2022-08-03T12:39:25;47.70;40.10
22950;DHT22;11641;51.018;4.474;2022-08-03T12:41:52;47.60;40.10
22950;DHT22;11641;51.018;4.474;2022-08-03T12:44:31;45.90;41.30
22950;DHT22;11641;51.018;4.474;2022-08-03T12:46:58;45.80;42.50
22950;DHT22;11641;51.018;4.474;2022-08-03T12:49:48;45.20;42.60
22950;DHT22;11641;51.018;4.474;2022-08-03T12:52:15;46.40;41.60
22950;DHT22;11641;51.018;4.474;2022-08-03T12:54:53;47.80;40.10
22950;DHT22;11641;51.018;4.474;2022-08-03T12:57:19;46.80;40.80
22950;DHT22;11641;51.018;4.474;2022-08-03T12:59:45;47.30;40.50
22950;DHT22;11641;51.018;4.474;2022-08-03T13:02:24;48.40;39.10
22950;DHT22;11641;51.018;4.474;2022-08-03T13:04:52;49.00;38.40
22950;DHT22;11641;51.018;4.474;2022-08-03T13:07:19;48.80;37.70
22950;DHT22;11641;51.018;4.474;2022-08-03T13:09:52;48.40;38.60
22950;DHT22;11641;51.018;4.474;2022-08-03T13:12:24;47.30;40.00
22950;DHT22;11641;51.018;4.474;2022-08-03T13:14:55;44.80;42.20
22950;DHT22;11641;51.018;4.474;2022-08-03T13:17:24;43.30;44.90
22950;DHT22;11641;51.018;4.474;2022-08-03T13:19:50;44.90;42.70
22950;DHT22;11641;51.018;4.474;2022-08-03T13:24:49;43.40;45.30
22950;DHT22;11641;51.018;4.474;2022-08-03T13:27:16;43.30;45.30
22950;DHT22;11641;51.018;4.474;2022-08-03T13:29:42;44.20;43.40
22950;DHT22;11641;51.018;4.474;2022-08-03T13:32:10;46.30;42.10
22950;DHT22;11641;51.018;4.474;2022-08-03T13:34:38;46.20;41.30
22950;DHT22;11641;51.018;4.474;2022-08-03T13:37:04;47.70;39.70
22950;DHT22;11641;51.018;4.474;2022-08-03T13:39:30;48.30;39.00
22950;DHT22;11641;51.018;4.474;2022-08-03T13:41:56;49.20;38.40
22950;DHT22;11641;51.018;4.474;2022-08-03T13:44:23;49.40;38.20
22950;DHT22;11641;51.018;4.474;2022-08-03T13:46:51;49.70;37.30
22950;DHT22;11641;51.018;4.474;2022-08-03T13:49:17;51.10;36.90
22950;DHT22;11641;51.018;4.474;2022-08-03T13:51:45;53.30;34.90
22950;DHT22;11641;51.018;4.474;2022-08-03T13:54:12;52.20;33.50
22950;DHT22;11641;51.018;4.474;2022-08-03T13:56:37;52.10;34.10
22950;DHT22;11641;51.018;4.474;2022-08-03T13:59:03;50.90;35.10
22950;DHT22;11641;51.018;4.474;2022-08-03T14:01:30;51.40;34.30
22950;DHT22;11641;51.018;4.474;2022-08-03T14:03:56;50.80;34.80
22950;DHT22;11641;51.018;4.474;2022-08-03T14:06:23;49.80;36.00
22950;DHT22;11641;51.018;4.474;2022-08-03T14:08:50;49.20;35.90
22950;DHT22;11641;51.018;4.474;2022-08-03T14:11:19;48.00;36.70
22950;DHT22;11641;51.018;4.474;2022-08-03T14:13:46;48.20;36.60
22950;DHT22;11641;51.018;4.474;2022-08-03T14:16:15;49.20;36.50
22950;DHT22;11641;51.018;4.474;2022-08-03T14:18:45;50.00;35.20
22950;DHT22;11641;51.018;4.474;2022-08-03T14:21:11;51.40;35.00
22950;DHT22;11641;51.018;4.474;2022-08-03T14:23:40;49.70;35.30
22950;DHT22;11641;51.018;4.474;2022-08-03T14:26:06;49.00;35.90
22950;DHT22;11641;51.018;4.474;2022-08-03T14:28:33;49.30;36.00
22950;DHT22;11641;51.018;4.474;2022-08-03T14:30:59;50.10;35.40
22950;DHT22;11641;51.018;4.474;2022-08-03T14:33:28;51.90;34.30
22950;DHT22;11641;51.018;4.474;2022-08-03T14:35:54;52.20;33.00
22950;DHT22;11641;51.018;4.474;2022-08-03T14:38:20;51.20;33.20
22950;DHT22;11641;51.018;4.474;2022-08-03T14:40:46;50.00;34.40
22950;DHT22;11641;51.018;4.474;2022-08-03T14:43:13;50.00;35.10
22950;DHT22;11641;51.018;4.474;2022-08-03T14:45:39;48.60;35.40
22950;DHT22;11641;51.018;4.474;2022-08-03T14:48:05;49.10;35.90
22950;DHT22;11641;51.018;4.474;2022-08-03T14:50:31;50.40;35.10
22950;DHT22;11641;51.018;4.474;2022-08-03T14:52:57;50.90;34.00
22950;DHT22;11641;51.018;4.474;2022-08-03T14:55:22;50.70;34.70
22950;DHT22;11641;51.018;4.474;2022-08-03T14:57:48;51.60;33.70
22950;DHT22;11641;51.018;4.474;2022-08-03T15:00:16;51.30;34.70
22950;DHT22;11641;51.018;4.474;2022-08-03T15:02:42;52.40;33.70
22950;DHT22;11641;51.018;4.474;2022-08-03T15:05:08;52.40;32.50
22950;DHT22;11641;51.018;4.474;2022-08-03T15:07:39;52.50;31.70
22950;DHT22;11641;51.018;4.474;2022-08-03T15:10:07;52.10;32.20
22950;DHT22;11641;51.018;4.474;2022-08-03T15:12:33;50.00;33.70
22950;DHT22;11641;51.018;4.474;2022-08-03T15:14:59;50.20;34.10
22950;DHT22;11641;51.018;4.474;2022-08-03T15:17:24;49.60;35.00
22950;DHT22;11641;51.018;4.474;2022-08-03T15:19:54;48.80;36.50
22950;DHT22;11641;51.018;4.474;2022-08-03T15:22:19;49.10;36.30
22950;DHT22;11641;51.018;4.474;2022-08-03T15:24:46;48.80;35.10
22950;DHT22;11641;51.018;4.474;2022-08-03T15:27:11;48.50;35.90
22950;DHT22;11641;51.018;4.474;2022-08-03T15:29:41;49.40;34.70
22950;DHT22;11641;51.018;4.474;2022-08-03T15:32:06;49.60;34.30
22950;DHT22;11641;51.018;4.474;2022-08-03T15:34:33;50.20;34.50
22950;DHT22;11641;51.018;4.474;2022-08-03T15:36:59;50.50;34.10
22950;DHT22;11641;51.018;4.474;2022-08-03T15:39:24;49.90;33.90
22950;DHT22;11641;51.018;4.474;2022-08-03T15:41:50;50.70;34.50
22950;DHT22;11641;51.018;4.474;2022-08-03T15:44:19;51.90;33.30
22950;DHT22;11641;51.018;4.474;2022-08-03T15:46:45;52.40;32.50
22950;DHT22;11641;51.018;4.474;2022-08-03T15:49:12;52.20;32.00
22950;DHT22;11641;51.018;4.474;2022-08-03T15:51:39;52.00;32.30
22950;DHT22;11641;51.018;4.474;2022-08-03T15:54:06;50.50;33.10
22950;DHT22;11641;51.018;4.474;2022-08-03T15:56:32;51.30;33.10
22950;DHT22;11641;51.018;4.474;2022-08-03T15:58:57;51.90;32.70
22950;DHT22;11641;51.018;4.474;2022-08-03T16:01:31;52.70;32.00
22950;DHT22;11641;51.018;4.474;2022-08-03T16:03:58;53.60;31.80
22950;DHT22;11641;51.018;4.474;2022-08-03T16:06:23;54.00;30.70
22950;DHT22;11641;51.018;4.474;2022-08-03T16:08:49;52.50;31.80
22950;DHT22;11641;51.018;4.474;2022-08-03T16:11:17;52.00;32.40
22950;DHT22;11641;51.018;4.474;2022-08-03T16:13:45;51.40;32.50
22950;DHT22;11641;51.018;4.474;2022-08-03T16:16:13;52.00;32.30
22950;DHT22;11641;51.018;4.474;2022-08-03T16:18:39;51.70;31.90